sensor_id;sensor_type;location;lat;lon;timestamp;pressure;altitude;pressure_sealevel;temperature;humidity
52249;BME280;38541;48.130;8.378;2023-05-03T00:01:28;93419.75;;;6.55;70.68
52249;BME280;38541;48.130;8.378;2023-05-03T00:03:54;93422.56;;;6.53;70.55
52249;BME280;38541;48.130;8.378;2023-05-03T00:06:20;93423.81;;;6.51;70.39
52249;BME280;38541;48.130;8.378;2023-05-03T00:08:47;93425.47;;;6.45;71.83
52249;BME280;38541;48.130;8.378;2023-05-03T00:11:14;93418.59;;;6.51;72.01
52249;BME280;38541;48.130;8.378;2023-05-03T00:13:41;93425.84;;;6.49;71.43
52249;BME280;38541;48.130;8.378;2023-05-03T00:16:08;93420.63;;;6.49;71.83
52249;BME280;38541;48.130;8.378;2023-05-03T00:18:34;93420.97;;;6.52;71.71
52249;BME280;38541;48.130;8.378;2023-05-03T00:21:00;93419.25;;;6.46;71.12
52249;BME280;38541;48.130;8.378;2023-05-03T00:23:27;93420.47;;;6.43;71.01
52249;BME280;38541;48.130;8.378;2023-05-03T00:25:55;93411.84;;;6.43;70.15
52249;BME280;38541;48.130;8.378;2023-05-03T00:28:22;93419.25;;;6.27;69.49
52249;BME280;38541;48.130;8.378;2023-05-03T00:30:49;93413.66;;;6.24;69.95
52249;BME280;38541;48.130;8.378;2023-05-03T00:33:15;93412.44;;;6.26;70.07
52249;BME280;38541;48.130;8.378;2023-05-03T00:35:43;93406.28;;;6.21;69.42
52249;BME280;38541;48.130;8.378;2023-05-03T00:38:10;93404.91;;;6.18;69.53
52249;BME280;38541;48.130;8.378;2023-05-03T00:40:37;93402.88;;;6.20;70.03
52249;BME280;38541;48.130;8.378;2023-05-03T00:43:03;93403.09;;;6.19;70.30
52249;BME280;38541;48.130;8.378;2023-05-03T00:45:32;93401.72;;;6.16;70.31
52249;BME280;38541;48.130;8.378;2023-05-03T00:47:58;93396.94;;;6.13;70.24
52249;BME280;38541;48.130;8.378;2023-05-03T00:50:25;93397.38;;;6.10;69.75
52249;BME280;38541;48.130;8.378;2023-05-03T00:52:52;93397.59;;;6.08;69.95
52249;BME280;38541;48.130;8.378;2023-05-03T00:55:18;93395.06;;;6.02;69.84
52249;BME280;38541;48.130;8.378;2023-05-03T00:57:45;93394.84;;;5.96;70.65
52249;BME280;38541;48.130;8.378;2023-05-03T01:00:12;93398.72;;;5.94;70.54
52249;BME280;38541;48.130;8.378;2023-05-03T01:02:39;93399.09;;;5.97;71.09
52249;BME280;38541;48.130;8.378;2023-05-03T01:05:06;93397.47;;;5.96;70.96
52249;BME280;38541;48.130;8.378;2023-05-03T01:10:32;93394.63;;;6.05;72.84
52249;BME280;38541;48.130;8.378;2023-05-03T01:16:05;93390.56;;;6.09;72.73
52249;BME280;38541;48.130;8.378;2023-05-03T01:18:37;93389.69;;;6.15;73.04
52249;BME280;38541;48.130;8.378;2023-05-03T01:21:07;93389.34;;;6.11;72.74
52249;BME280;38541;48.130;8.378;2023-05-03T01:26:22;93382.19;;;6.00;72.33
52249;BME280;38541;48.130;8.378;2023-05-03T01:28:50;93376.41;;;5.98;72.74
52249;BME280;38541;48.130;8.378;2023-05-03T01:31:21;93388.88;;;5.96;72.65
52249;BME280;38541;48.130;8.378;2023-05-03T01:34:00;93378.22;;;5.97;72.63
52249;BME280;38541;48.130;8.378;2023-05-03T01:36:30;93377.47;;;5.90;71.65
52249;BME280;38541;48.130;8.378;2023-05-03T01:39:08;93375.88;;;5.89;71.90
52249;BME280;38541;48.130;8.378;2023-05-03T01:41:36;93375.16;;;5.82;71.61
52249;BME280;38541;48.130;8.378;2023-05-03T01:44:06;93381.09;;;5.89;73.02
52249;BME280;38541;48.130;8.378;2023-05-03T01:46:43;93377.47;;;5.90;72.45
52249;BME280;38541;48.130;8.378;2023-05-03T01:49:10;93377.47;;;5.90;72.75
52249;BME280;38541;48.130;8.378;2023-05-03T01:51:37;93377.91;;;5.87;72.25
52249;BME280;38541;48.130;8.378;2023-05-03T01:54:04;93367.94;;;5.84;71.76
52249;BME280;38541;48.130;8.378;2023-05-03T01:56:34;93376.31;;;5.86;72.47
52249;BME280;38541;48.130;8.378;2023-05-03T01:59:02;93375.09;;;5.89;72.47
52249;BME280;38541;48.130;8.378;2023-05-03T02:01:29;93377.78;;;5.82;72.06
52249;BME280;38541;48.130;8.378;2023-05-03T02:03:56;93377.19;;;5.80;72.48
52249;BME280;38541;48.130;8.378;2023-05-03T02:06:24;93377.59;;;5.77;72.10
52249;BME280;38541;48.130;8.378;2023-05-03T02:08:52;93384.13;;;5.67;71.88
52249;BME280;38541;48.130;8.378;2023-05-03T02:11:19;93388.31;;;5.68;73.06
52249;BME280;38541;48.130;8.378;2023-05-03T02:13:48;93389.28;;;5.74;74.00
52249;BME280;38541;48.130;8.378;2023-05-03T02:16:17;93382.03;;;5.76;73.82
52249;BME280;38541;48.130;8.378;2023-05-03T02:18:43;93376.00;;;5.76;73.19
52249;BME280;38541;48.130;8.378;2023-05-03T02:21:10;93382.53;;;5.66;72.29
52249;BME280;38541;48.130;8.378;2023-05-03T02:23:38;93380.13;;;5.65;72.68
52249;BME280;38541;48.130;8.378;2023-05-03T02:26:05;93374.91;;;5.65;72.34
52249;BME280;38541;48.130;8.378;2023-05-03T02:28:32;93370.63;;;5.52;72.36
52249;BME280;38541;48.130;8.378;2023-05-03T02:30:59;93368.47;;;5.49;72.84
52249;BME280;38541;48.130;8.378;2023-05-03T02:33:26;93365.66;;;5.50;73.13
52249;BME280;38541;48.130;8.378;2023-05-03T02:35:53;93374.53;;;5.42;73.12
52249;BME280;38541;48.130;8.378;2023-05-03T02:38:19;93359.91;;;5.41;73.67
52249;BME280;38541;48.130;8.378;2023-05-03T02:40:46;93367.56;;;5.36;73.58
52249;BME280;38541;48.130;8.378;2023-05-03T02:43:13;93357.94;;;5.37;73.20
52249;BME280;38541;48.130;8.378;2023-05-03T02:45:42;93358.00;;;5.30;72.95
52249;BME280;38541;48.130;8.378;2023-05-03T02:48:09;93354.44;;;5.24;73.27
52249;BME280;38541;48.130;8.378;2023-05-03T02:50:36;93353.66;;;5.24;74.00
52249;BME280;38541;48.130;8.378;2023-05-03T02:53:02;93359.88;;;5.23;73.23
52249;BME280;38541;48.130;8.378;2023-05-03T02:55:29;93355.00;;;5.26;73.43
52249;BME280;38541;48.130;8.378;2023-05-03T02:57:56;93357.28;;;5.23;72.98
52249;BME280;38541;48.130;8.378;2023-05-03T03:00:23;93360.50;;;5.18;72.58
52249;BME280;38541;48.130;8.378;2023-05-03T03:02:50;93358.09;;;5.17;73.17
52249;BME280;38541;48.130;8.378;2023-05-03T03:05:16;93359.09;;;5.16;73.82
52249;BME280;38541;48.130;8.378;2023-05-03T03:07:47;93358.97;;;5.10;73.59
52249;BME280;38541;48.130;8.378;2023-05-03T03:10:13;93350.13;;;5.11;74.25
52249;BME280;38541;48.130;8.378;2023-05-03T03:12:40;93344.28;;;5.16;74.91
52249;BME280;38541;48.130;8.378;2023-05-03T03:15:11;93351.88;;;5.18;74.98
52249;BME280;38541;48.130;8.378;2023-05-03T03:17:38;93342.69;;;5.15;74.13
52249;BME280;38541;48.130;8.378;2023-05-03T03:20:08;93346.66;;;5.18;73.89
52249;BME280;38541;48.130;8.378;2023-05-03T03:22:41;93346.47;;;5.19;73.50
52249;BME280;38541;48.130;8.378;2023-05-03T03:25:09;93342.41;;;5.23;74.07
52249;BME280;38541;48.130;8.378;2023-05-03T03:27:36;93347.06;;;5.21;73.79
52249;BME280;38541;48.130;8.378;2023-05-03T03:30:05;93355.69;;;5.22;74.01
52249;BME280;38541;48.130;8.378;2023-05-03T03:32:36;93356.25;;;5.24;74.29
52249;BME280;38541;48.130;8.378;2023-05-03T03:35:08;93357.41;;;5.28;74.96
52249;BME280;38541;48.130;8.378;2023-05-03T03:37:35;93355.19;;;5.32;75.19
52249;BME280;38541;48.130;8.378;2023-05-03T03:40:02;93357.94;;;5.37;75.35
52249;BME280;38541;48.130;8.378;2023-05-03T03:42:29;93355.88;;;5.46;75.90
52249;BME280;38541;48.130;8.378;2023-05-03T03:44:57;93353.41;;;5.51;75.83
52249;BME280;38541;48.130;8.378;2023-05-03T03:47:23;93350.16;;;5.55;75.85
52249;BME280;38541;48.130;8.378;2023-05-03T03:49:50;93355.75;;;5.59;75.97
52249;BME280;38541;48.130;8.378;2023-05-03T03:52:17;93360.47;;;5.69;76.21
52249;BME280;38541;48.130;8.378;2023-05-03T03:54:44;93357.19;;;5.74;75.80
52249;BME280;38541;48.130;8.378;2023-05-03T03:57:11;93358.94;;;5.80;75.95
52249;BME280;38541;48.130;8.378;2023-05-03T03:59:38;93355.03;;;5.89;76.10
52249;BME280;38541;48.130;8.378;2023-05-03T04:02:04;93355.75;;;5.96;75.54
52249;BME280;38541;48.130;8.378;2023-05-03T04:04:31;93358.97;;;5.98;75.84
52249;BME280;38541;48.130;8.378;2023-05-03T04:06:58;93364.75;;;6.00;75.70
52249;BME280;38541;48.130;8.378;2023-05-03T04:09:26;93360.28;;;6.08;75.81
52249;BME280;38541;48.130;8.378;2023-05-03T04:11:52;93359.38;;;6.14;76.60
52249;BME280;38541;48.130;8.378;2023-05-03T04:14:19;93357.28;;;6.23;77.25
52249;BME280;38541;48.130;8.378;2023-05-03T04:16:46;93354.59;;;6.30;76.83
52249;BME280;38541;48.130;8.378;2023-05-03T04:19:12;93360.53;;;6.37;77.13
52249;BME280;38541;48.130;8.378;2023-05-03T04:21:40;93356.09;;;6.37;77.27
52249;BME280;38541;48.130;8.378;2023-05-03T04:24:07;93363.28;;;6.42;78.00
52249;BME280;38541;48.130;8.378;2023-05-03T04:26:34;93364.22;;;6.48;78.40
52249;BME280;38541;48.130;8.378;2023-05-03T04:29:07;93367.91;;;6.59;78.31
52249;BME280;38541;48.130;8.378;2023-05-03T04:31:37;93370.06;;;6.62;78.56
52249;BME280;38541;48.130;8.378;2023-05-03T04:34:04;93368.16;;;6.69;78.70
52249;BME280;38541;48.130;8.378;2023-05-03T04:36:31;93370.00;;;6.80;79.00
52249;BME280;38541;48.130;8.378;2023-05-03T04:38:58;93362.41;;;6.91;78.90
52249;BME280;38541;48.130;8.378;2023-05-03T04:41:25;93365.38;;;6.94;78.86
52249;BME280;38541;48.130;8.378;2023-05-03T04:43:52;93364.06;;;7.04;79.15
52249;BME280;38541;48.130;8.378;2023-05-03T04:46:19;93369.50;;;7.14;78.78
52249;BME280;38541;48.130;8.378;2023-05-03T04:48:48;93368.84;;;7.19;78.87
52249;BME280;38541;48.130;8.378;2023-05-03T04:51:15;93367.81;;;7.20;78.88
52249;BME280;38541;48.130;8.378;2023-05-03T04:53:43;93374.53;;;7.27;78.36
52249;BME280;38541;48.130;8.378;2023-05-03T04:56:14;93371.59;;;7.36;78.46
52249;BME280;38541;48.130;8.378;2023-05-03T04:58:42;93364.31;;;7.38;78.24
52249;BME280;38541;48.130;8.378;2023-05-03T05:01:10;93369.78;;;7.36;78.22
52249;BME280;38541;48.130;8.378;2023-05-03T05:03:37;93371.47;;;7.42;78.39
52249;BME280;38541;48.130;8.378;2023-05-03T05:06:09;93373.78;;;7.51;78.18
52249;BME280;38541;48.130;8.378;2023-05-03T05:08:39;93369.69;;;7.55;78.06
52249;BME280;38541;48.130;8.378;2023-05-03T05:11:09;93369.22;;;7.58;78.17
52249;BME280;38541;48.130;8.378;2023-05-03T05:13:35;93370.13;;;7.64;77.64
52249;BME280;38541;48.130;8.378;2023-05-03T05:16:02;93373.53;;;7.64;77.70
52249;BME280;38541;48.130;8.378;2023-05-03T05:18:29;93368.41;;;7.57;77.07
52249;BME280;38541;48.130;8.378;2023-05-03T05:20:58;93384.91;;;7.46;77.99
52249;BME280;38541;48.130;8.378;2023-05-03T05:23:25;93384.09;;;7.46;77.41
52249;BME280;38541;48.130;8.378;2023-05-03T05:25:52;93379.22;;;7.61;78.25
52249;BME280;38541;48.130;8.378;2023-05-03T05:28:19;93379.47;;;7.71;77.56
52249;BME280;38541;48.130;8.378;2023-05-03T05:30:46;93386.94;;;7.80;77.32
52249;BME280;38541;48.130;8.378;2023-05-03T05:33:13;93388.44;;;7.88;76.70
52249;BME280;38541;48.130;8.378;2023-05-03T05:35:44;93385.59;;;7.89;77.41
52249;BME280;38541;48.130;8.378;2023-05-03T05:38:10;93387.75;;;7.92;77.12
52249;BME280;38541;48.130;8.378;2023-05-03T05:40:37;93386.16;;;7.91;76.75
52249;BME280;38541;48.130;8.378;2023-05-03T05:43:04;93391.50;;;7.96;76.85
52249;BME280;38541;48.130;8.378;2023-05-03T05:45:34;93389.31;;;8.05;76.53
52249;BME280;38541;48.130;8.378;2023-05-03T05:48:02;93387.94;;;8.14;76.49
52249;BME280;38541;48.130;8.378;2023-05-03T05:50:30;93396.94;;;8.19;76.57
52249;BME280;38541;48.130;8.378;2023-05-03T05:53:01;93397.03;;;8.24;76.73
52249;BME280;38541;48.130;8.378;2023-05-03T05:55:33;93397.97;;;8.18;76.61
52249;BME280;38541;48.130;8.378;2023-05-03T05:58:00;93393.72;;;8.28;76.63
52249;BME280;38541;48.130;8.378;2023-05-03T06:00:34;93395.19;;;8.36;76.06
52249;BME280;38541;48.130;8.378;2023-05-03T06:03:01;93400.22;;;8.26;75.66
52249;BME280;38541;48.130;8.378;2023-05-03T06:05:28;93393.72;;;8.28;76.54
52249;BME280;38541;48.130;8.378;2023-05-03T06:07:54;93395.31;;;8.30;76.19
52249;BME280;38541;48.130;8.378;2023-05-03T06:10:21;93391.31;;;8.39;76.25
52249;BME280;38541;48.130;8.378;2023-05-03T06:12:50;93390.63;;;8.43;75.66
52249;BME280;38541;48.130;8.378;2023-05-03T06:15:21;93394.13;;;8.49;75.01
52249;BME280;38541;48.130;8.378;2023-05-03T06:17:47;93390.16;;;8.47;75.34
52249;BME280;38541;48.130;8.378;2023-05-03T06:20:14;93386.41;;;8.54;75.10
52249;BME280;38541;48.130;8.378;2023-05-03T06:22:41;93390.84;;;8.54;74.63
52249;BME280;38541;48.130;8.378;2023-05-03T06:25:09;93392.53;;;8.48;75.50
52249;BME280;38541;48.130;8.378;2023-05-03T06:27:44;93395.16;;;8.48;74.25
52249;BME280;38541;48.130;8.378;2023-05-03T06:30:11;93404.81;;;8.60;75.48
52249;BME280;38541;48.130;8.378;2023-05-03T06:32:40;93401.84;;;8.68;75.45
52249;BME280;38541;48.130;8.378;2023-05-03T06:35:07;93402.31;;;8.65;75.70
52249;BME280;38541;48.130;8.378;2023-05-03T06:37:38;93401.59;;;8.69;75.71
52249;BME280;38541;48.130;8.378;2023-05-03T06:40:06;93395.38;;;8.47;75.75
52249;BME280;38541;48.130;8.378;2023-05-03T06:42:35;93399.50;;;8.54;75.38
52249;BME280;38541;48.130;8.378;2023-05-03T06:45:08;93400.72;;;8.64;75.50
52249;BME280;38541;48.130;8.378;2023-05-03T06:47:36;93399.59;;;8.60;75.17
52249;BME280;38541;48.130;8.378;2023-05-03T06:50:05;93398.84;;;8.76;75.00
52249;BME280;38541;48.130;8.378;2023-05-03T06:52:32;93396.34;;;8.81;74.94
52249;BME280;38541;48.130;8.378;2023-05-03T06:54:58;93390.06;;;8.82;74.58
52249;BME280;38541;48.130;8.378;2023-05-03T06:57:24;93395.94;;;8.90;74.58
52249;BME280;38541;48.130;8.378;2023-05-03T06:59:54;93398.84;;;8.76;74.67
52249;BME280;38541;48.130;8.378;2023-05-03T07:02:20;93394.03;;;8.85;74.39
52249;BME280;38541;48.130;8.378;2023-05-03T07:04:48;93397.72;;;9.01;74.22
52249;BME280;38541;48.130;8.378;2023-05-03T07:07:14;93391.75;;;9.06;74.18
52249;BME280;38541;48.130;8.378;2023-05-03T07:09:41;93385.91;;;9.16;73.69
52249;BME280;38541;48.130;8.378;2023-05-03T07:12:09;93387.59;;;9.22;73.92
52249;BME280;38541;48.130;8.378;2023-05-03T07:14:37;93388.94;;;9.41;73.61
52249;BME280;38541;48.130;8.378;2023-05-03T07:17:05;93383.06;;;9.51;72.70
52249;BME280;38541;48.130;8.378;2023-05-03T07:19:31;93386.56;;;9.40;72.45
52249;BME280;38541;48.130;8.378;2023-05-03T07:21:57;93375.91;;;9.47;72.08
52249;BME280;38541;48.130;8.378;2023-05-03T07:24:24;93371.78;;;9.68;72.63
52249;BME280;38541;48.130;8.378;2023-05-03T07:26:53;93364.91;;;9.84;71.99
52249;BME280;38541;48.130;8.378;2023-05-03T07:29:20;93367.84;;;9.70;71.37
52249;BME280;38541;48.130;8.378;2023-05-03T07:31:46;93370.81;;;9.74;71.80
52249;BME280;38541;48.130;8.378;2023-05-03T07:34:13;93371.78;;;10.07;70.81
52249;BME280;38541;48.130;8.378;2023-05-03T07:36:40;93359.38;;;10.03;71.12
52249;BME280;38541;48.130;8.378;2023-05-03T07:39:06;93363.75;;;10.14;71.98
52249;BME280;38541;48.130;8.378;2023-05-03T07:41:33;93366.28;;;10.31;71.23
52249;BME280;38541;48.130;8.378;2023-05-03T07:43:59;93363.97;;;10.35;71.05
52249;BME280;38541;48.130;8.378;2023-05-03T07:46:26;93360.94;;;10.43;71.02
52249;BME280;38541;48.130;8.378;2023-05-03T07:48:52;93362.84;;;10.48;70.83
52249;BME280;38541;48.130;8.378;2023-05-03T07:51:19;93360.09;;;10.60;70.83
52249;BME280;38541;48.130;8.378;2023-05-03T07:53:46;93366.06;;;10.77;69.46
52249;BME280;38541;48.130;8.378;2023-05-03T07:56:12;93361.38;;;10.84;68.98
52249;BME280;38541;48.130;8.378;2023-05-03T07:58:39;93364.63;;;10.92;68.89
52249;BME280;38541;48.130;8.378;2023-05-03T08:01:08;93356.19;;;10.90;68.76
52249;BME280;38541;48.130;8.378;2023-05-03T08:03:35;93358.13;;;10.72;68.94
52249;BME280;38541;48.130;8.378;2023-05-03T08:06:02;93366.47;;;10.96;67.98
52249;BME280;38541;48.130;8.378;2023-05-03T08:08:28;93363.56;;;10.65;68.25
52249;BME280;38541;48.130;8.378;2023-05-03T08:10:57;93364.88;;;10.68;69.08
52249;BME280;38541;48.130;8.378;2023-05-03T08:13:24;93365.09;;;10.89;68.45
52249;BME280;38541;48.130;8.378;2023-05-03T08:15:50;93370.84;;;10.85;68.39
52249;BME280;38541;48.130;8.378;2023-05-03T08:18:17;93369.38;;;10.67;67.43
52249;BME280;38541;48.130;8.378;2023-05-03T08:20:44;93365.66;;;10.91;69.49
52249;BME280;38541;48.130;8.378;2023-05-03T08:23:12;93371.69;;;10.91;68.17
52249;BME280;38541;48.130;8.378;2023-05-03T08:25:38;93376.38;;;11.11;68.78
52249;BME280;38541;48.130;8.378;2023-05-03T08:28:05;93371.41;;;11.48;68.23
52249;BME280;38541;48.130;8.378;2023-05-03T08:30:33;93371.72;;;11.94;66.77
52249;BME280;38541;48.130;8.378;2023-05-03T08:33:00;93374.50;;;12.15;67.19
52249;BME280;38541;48.130;8.378;2023-05-03T08:35:26;93374.25;;;12.17;65.54
52249;BME280;38541;48.130;8.378;2023-05-03T08:37:53;93368.13;;;12.06;65.76
52249;BME280;38541;48.130;8.378;2023-05-03T08:40:20;93378.41;;;12.07;65.65
52249;BME280;38541;48.130;8.378;2023-05-03T08:42:48;93371.72;;;11.94;65.89
52249;BME280;38541;48.130;8.378;2023-05-03T08:45:17;93371.72;;;11.94;65.48
52249;BME280;38541;48.130;8.378;2023-05-03T08:47:44;93370.78;;;11.73;66.44
52249;BME280;38541;48.130;8.378;2023-05-03T08:50:12;93364.72;;;12.10;65.88
52249;BME280;38541;48.130;8.378;2023-05-03T08:52:41;93373.66;;;12.09;65.37
52249;BME280;38541;48.130;8.378;2023-05-03T08:55:09;93383.50;;;12.24;65.50
52249;BME280;38541;48.130;8.378;2023-05-03T08:57:36;93383.06;;;12.43;64.82
52249;BME280;38541;48.130;8.378;2023-05-03T09:00:03;93387.81;;;12.46;62.65
52249;BME280;38541;48.130;8.378;2023-05-03T09:02:38;93388.88;;;12.50;63.47
52249;BME280;38541;48.130;8.378;2023-05-03T09:05:34;93385.78;;;12.69;63.36
52249;BME280;38541;48.130;8.378;2023-05-03T09:08:06;93387.72;;;12.99;63.26
52249;BME280;38541;48.130;8.378;2023-05-03T09:10:36;93382.50;;;13.31;63.84
52249;BME280;38541;48.130;8.378;2023-05-03T09:13:02;93383.31;;;13.36;62.05
52249;BME280;38541;48.130;8.378;2023-05-03T09:15:29;93385.44;;;13.50;62.16
52249;BME280;38541;48.130;8.378;2023-05-03T09:18:10;93392.72;;;12.91;60.83
52249;BME280;38541;48.130;8.378;2023-05-03T09:20:39;93396.94;;;12.97;62.44
52249;BME280;38541;48.130;8.378;2023-05-03T09:23:07;93395.66;;;13.10;62.10
52249;BME280;38541;48.130;8.378;2023-05-03T09:25:47;93397.50;;;13.04;62.63
52249;BME280;38541;48.130;8.378;2023-05-03T09:28:15;93384.84;;;13.06;62.92
52249;BME280;38541;48.130;8.378;2023-05-03T09:30:43;93394.84;;;13.09;63.18
52249;BME280;38541;48.130;8.378;2023-05-03T09:33:10;93386.97;;;13.25;62.11
52249;BME280;38541;48.130;8.378;2023-05-03T09:36:02;93386.41;;;13.02;60.46
52249;BME280;38541;48.130;8.378;2023-05-03T09:38:33;93382.63;;;12.67;62.72
52249;BME280;38541;48.130;8.378;2023-05-03T09:41:00;93372.59;;;12.69;64.26
52249;BME280;38541;48.130;8.378;2023-05-03T09:43:27;93379.16;;;12.51;64.31
52249;BME280;38541;48.130;8.378;2023-05-03T09:46:10;93374.72;;;12.62;65.76
52249;BME280;38541;48.130;8.378;2023-05-03T09:48:38;93372.09;;;12.77;65.60
52249;BME280;38541;48.130;8.378;2023-05-03T09:51:05;93371.84;;;12.74;63.33
52249;BME280;38541;48.130;8.378;2023-05-03T09:53:33;93371.03;;;12.73;63.10
52249;BME280;38541;48.130;8.378;2023-05-03T09:56:01;93373.72;;;12.89;63.82
52249;BME280;38541;48.130;8.378;2023-05-03T09:58:28;93377.66;;;12.81;61.85
52249;BME280;38541;48.130;8.378;2023-05-03T10:00:56;93370.53;;;12.81;64.05
52249;BME280;38541;48.130;8.378;2023-05-03T10:03:30;93375.53;;;12.83;64.06
52249;BME280;38541;48.130;8.378;2023-05-03T10:05:59;93373.13;;;12.66;62.90
52249;BME280;38541;48.130;8.378;2023-05-03T10:11:33;93373.19;;;12.97;61.98
52249;BME280;38541;48.130;8.378;2023-05-03T10:14:00;93372.72;;;13.21;62.48
52249;BME280;38541;48.130;8.378;2023-05-03T10:16:32;93373.78;;;13.35;62.33
52249;BME280;38541;48.130;8.378;2023-05-03T10:19:14;93375.34;;;13.10;62.47
52249;BME280;38541;48.130;8.378;2023-05-03T10:22:01;93376.97;;;13.43;63.03
52249;BME280;38541;48.130;8.378;2023-05-03T10:24:28;93366.16;;;13.75;62.76
52249;BME280;38541;48.130;8.378;2023-05-03T10:26:55;93371.44;;;13.65;61.61
52249;BME280;38541;48.130;8.378;2023-05-03T10:32:05;93371.13;;;13.92;62.20
52249;BME280;38541;48.130;8.378;2023-05-03T10:34:55;93370.91;;;13.83;61.06
52249;BME280;38541;48.130;8.378;2023-05-03T10:37:25;93363.69;;;14.10;58.15
52249;BME280;38541;48.130;8.378;2023-05-03T10:39:52;93358.25;;;14.62;56.45
52249;BME280;38541;48.130;8.378;2023-05-03T10:42:23;93358.50;;;15.16;61.22
52249;BME280;38541;48.130;8.378;2023-05-03T10:44:52;93354.06;;;15.46;56.18
52249;BME280;38541;48.130;8.378;2023-05-03T10:47:21;93358.63;;;15.35;55.74
52249;BME280;38541;48.130;8.378;2023-05-03T10:55:13;93350.97;;;16.03;55.83
52249;BME280;38541;48.130;8.378;2023-05-03T10:57:44;93349.72;;;15.90;55.95
52249;BME280;38541;48.130;8.378;2023-05-03T11:00:19;93344.69;;;16.42;57.64
52249;BME280;38541;48.130;8.378;2023-05-03T11:05:38;93344.38;;;16.24;53.89
52249;BME280;38541;48.130;8.378;2023-05-03T11:08:16;93339.44;;;16.37;56.76
52249;BME280;38541;48.130;8.378;2023-05-03T11:10:44;93336.22;;;16.83;54.31
52249;BME280;38541;48.130;8.378;2023-05-03T11:13:12;93324.69;;;16.93;50.43
52249;BME280;38541;48.130;8.378;2023-05-03T11:15:39;93324.09;;;16.96;53.30
52249;BME280;38541;48.130;8.378;2023-05-03T11:18:06;93323.94;;;17.45;53.83
52249;BME280;38541;48.130;8.378;2023-05-03T11:20:34;93325.31;;;17.90;50.69
52249;BME280;38541;48.130;8.378;2023-05-03T11:23:02;93316.50;;;17.28;51.14
52249;BME280;38541;48.130;8.378;2023-05-03T11:25:29;93313.78;;;17.80;49.49
52249;BME280;38541;48.130;8.378;2023-05-03T11:27:55;93307.91;;;17.97;49.80
52249;BME280;38541;48.130;8.378;2023-05-03T11:30:22;93309.44;;;17.71;49.26
52249;BME280;38541;48.130;8.378;2023-05-03T11:32:48;93305.69;;;17.72;50.67
52249;BME280;38541;48.130;8.378;2023-05-03T11:35:15;93300.06;;;18.06;50.65
52249;BME280;38541;48.130;8.378;2023-05-03T11:37:43;93318.19;;;18.18;48.44
52249;BME280;38541;48.130;8.378;2023-05-03T11:40:14;93304.88;;;18.60;47.71
52249;BME280;38541;48.130;8.378;2023-05-03T11:42:55;93298.38;;;18.24;47.79
52249;BME280;38541;48.130;8.378;2023-05-03T11:45:23;93302.06;;;18.79;49.76
52249;BME280;38541;48.130;8.378;2023-05-03T11:47:51;93299.84;;;18.59;44.93
52249;BME280;38541;48.130;8.378;2023-05-03T11:50:18;93305.28;;;18.90;47.09
52249;BME280;38541;48.130;8.378;2023-05-03T11:52:52;93303.34;;;18.82;48.07
52249;BME280;38541;48.130;8.378;2023-05-03T11:55:20;93303.63;;;18.44;46.75
52249;BME280;38541;48.130;8.378;2023-05-03T11:57:46;93302.94;;;19.03;46.05
52249;BME280;38541;48.130;8.378;2023-05-03T12:00:14;93305.03;;;19.60;44.91
52249;BME280;38541;48.130;8.378;2023-05-03T12:02:46;93305.53;;;19.17;43.10
52249;BME280;38541;48.130;8.378;2023-05-03T12:05:13;93301.16;;;19.35;44.69
52249;BME280;38541;48.130;8.378;2023-05-03T12:07:41;93309.47;;;19.65;45.39
52249;BME280;38541;48.130;8.378;2023-05-03T12:10:16;93308.59;;;20.01;46.57
52249;BME280;38541;48.130;8.378;2023-05-03T12:12:56;93305.78;;;19.52;42.85
52249;BME280;38541;48.130;8.378;2023-05-03T12:15:30;93299.59;;;19.20;45.77
52249;BME280;38541;48.130;8.378;2023-05-03T12:18:00;93302.69;;;19.13;46.13
52249;BME280;38541;48.130;8.378;2023-05-03T12:20:30;93302.38;;;19.83;45.46
52249;BME280;38541;48.130;8.378;2023-05-03T12:23:03;93295.03;;;20.20;44.59
52249;BME280;38541;48.130;8.378;2023-05-03T12:25:31;93290.34;;;20.35;44.44
52249;BME280;38541;48.130;8.378;2023-05-03T12:28:04;93295.94;;;19.52;43.10
52249;BME280;38541;48.130;8.378;2023-05-03T12:30:33;93299.97;;;18.53;44.17
52249;BME280;38541;48.130;8.378;2023-05-03T12:33:00;93303.19;;;17.94;45.45
52249;BME280;38541;48.130;8.378;2023-05-03T12:35:30;93287.84;;;18.19;45.51
52249;BME280;38541;48.130;8.378;2023-05-03T12:37:59;93279.28;;;19.47;46.76
52249;BME280;38541;48.130;8.378;2023-05-03T12:40:29;93275.66;;;19.74;43.83
52249;BME280;38541;48.130;8.378;2023-05-03T12:43:00;93283.69;;;19.29;45.88
52249;BME280;38541;48.130;8.378;2023-05-03T12:45:27;93269.69;;;19.23;42.15
52249;BME280;38541;48.130;8.378;2023-05-03T12:47:59;93272.19;;;18.82;41.76
52249;BME280;38541;48.130;8.378;2023-05-03T12:50:25;93274.66;;;19.38;43.54
52249;BME280;38541;48.130;8.378;2023-05-03T12:52:57;93263.50;;;20.22;40.39
52249;BME280;38541;48.130;8.378;2023-05-03T12:55:28;93267.31;;;20.39;39.87
52249;BME280;38541;48.130;8.378;2023-05-03T12:58:00;93255.72;;;19.72;40.40
52249;BME280;38541;48.130;8.378;2023-05-03T13:00:47;93261.19;;;19.35;43.05
52249;BME280;38541;48.130;8.378;2023-05-03T13:03:34;93249.16;;;20.01;41.44
52249;BME280;38541;48.130;8.378;2023-05-03T13:06:09;93256.06;;;21.21;40.36
52249;BME280;38541;48.130;8.378;2023-05-03T13:08:39;93252.47;;;22.82;37.27
52249;BME280;38541;48.130;8.378;2023-05-03T13:11:15;93250.00;;;26.32;31.72
52249;BME280;38541;48.130;8.378;2023-05-03T13:13:44;93253.59;;;26.56;30.27
52249;BME280;38541;48.130;8.378;2023-05-03T13:16:11;93244.06;;;24.92;30.76
52249;BME280;38541;48.130;8.378;2023-05-03T13:18:38;93244.56;;;24.07;34.00
52249;BME280;38541;48.130;8.378;2023-05-03T13:21:05;93248.16;;;22.89;34.69
52249;BME280;38541;48.130;8.378;2023-05-03T13:23:33;93244.25;;;25.28;30.98
52249;BME280;38541;48.130;8.378;2023-05-03T13:25:59;93230.00;;;27.63;26.79
52249;BME280;38541;48.130;8.378;2023-05-03T13:28:26;93227.72;;;25.71;29.54
52249;BME280;38541;48.130;8.378;2023-05-03T13:30:53;93221.59;;;23.85;32.59
52249;BME280;38541;48.130;8.378;2023-05-03T13:33:19;93232.75;;;22.05;34.75
52249;BME280;38541;48.130;8.378;2023-05-03T13:35:46;93227.31;;;25.12;33.57